Time;durP1;ratioP1;P1;durP2;ratioP2;P2;SDS_P1;SDS_P2;PMS_P1;PMS_P2;Temp;Humidity;BMP_temperature;BMP_pressure;BME280_temperature;BME280_humidity;BME280_pressure;Samples;Min_cycle;Max_cycle;Signal;HPM_P1;HPM_P2
2023/03/12 00:01:38;;;;;;;1.60;1.40;;;;;;;-141.97;61.64;47619.03;5009173;28;20249;-90
2023/03/12 00:04:04;;;;;;;3.03;1.90;;;;;;;-141.97;62.47;47730.50;5008097;28;20203;-91
2023/03/12 00:06:30;;;;;;;1.97;1.77;;;;;;;-141.97;63.27;47622.88;5008426;28;20174;-90
2023/03/12 00:08:57;;;;;;;1.70;1.40;;;;;;;-141.97;63.76;47711.28;5010762;28;20407;-91
2023/03/12 00:11:23;;;;;;;2.10;1.57;;;;;;;-141.97;62.68;47726.66;5015851;28;20195;-90
2023/03/12 00:13:54;;;;;;;4.27;2.37;;;;;;;-141.97;62.34;47726.66;5011774;28;20618;-89
2023/03/12 00:16:20;;;;;;;3.63;2.00;;;;;;;-141.97;62.40;47605.56;5008701;28;20171;-90
2023/03/12 00:18:51;;;;;;;3.27;1.90;;;;;;;-141.97;59.13;47780.47;5005183;28;20792;-90
2023/03/12 00:21:17;;;;;;;3.17;1.57;;;;;;;-141.97;57.98;47761.25;5003990;28;20977;-90
2023/03/12 00:23:43;;;;;;;1.83;1.43;;;;;;;-141.97;63.42;47542.16;5014059;28;20445;-90
2023/03/12 00:26:11;;;;;;;2.90;1.73;;;;;;;-141.97;66.63;47542.16;5017757;28;20197;-89
2023/03/12 00:28:38;;;;;;;5.40;1.83;;;;;;;-141.97;67.23;47765.09;5018479;28;20171;-90
2023/03/12 00:31:23;;;;;;;3.13;1.87;;;;;;;-141.97;67.42;47709.38;5016502;28;20441;-91
2023/03/12 00:33:49;;;;;;;3.53;2.47;;;;;;;-141.97;67.39;47655.53;5016907;28;20409;-88
2023/03/12 00:36:19;;;;;;;2.73;1.80;;;;;;;-141.97;66.50;47732.44;5017704;28;20405;-89
2023/03/12 00:38:44;;;;;;;2.97;1.70;;;;;;;-141.97;67.43;47607.50;5016803;28;20702;-89
2023/03/12 00:41:10;;;;;;;2.83;2.00;;;;;;;-141.97;67.41;47522.91;5016316;28;20403;-89
2023/03/12 00:43:35;;;;;;;3.30;2.20;;;;;;;-141.97;67.15;47630.56;5018056;28;20209;-89
2023/03/12 00:46:01;;;;;;;3.43;2.33;;;;;;;-141.97;68.51;47749.72;5016276;28;20158;-89
2023/03/12 00:48:26;;;;;;;2.40;1.90;;;;;;;-141.97;68.67;47745.88;5028141;28;20547;-90
2023/03/12 00:50:52;;;;;;;3.70;2.20;;;;;;;-141.97;68.74;47672.84;5019187;28;20213;-90
2023/03/12 00:53:18;;;;;;;2.77;2.20;;;;;;;-141.97;68.31;47561.38;5037401;28;20169;-89
2023/03/12 00:55:43;;;;;;;3.73;2.00;;;;;;;-141.97;67.26;47699.75;5019027;28;20417;-89
2023/03/12 00:58:09;;;;;;;2.57;2.10;;;;;;;-141.97;65.90;47722.81;5036981;28;20637;-89
2023/03/12 01:00:34;;;;;;;3.47;2.20;;;;;;;-141.97;65.26;47749.72;5019355;28;20564;-90
2023/03/12 01:03:00;;;;;;;2.60;1.93;;;;;;;-141.97;64.32;47742.03;5022557;28;20180;-90
2023/03/12 01:05:26;;;;;;;3.47;1.97;;;;;;;-141.97;64.14;47788.19;5040619;28;20632;-89
2023/03/12 01:07:51;;;;;;;3.23;1.90;;;;;;;-141.97;64.05;47584.44;5023768;28;20209;-89
2023/03/12 01:10:18;;;;;;;3.50;2.17;;;;;;;-141.97;63.46;47599.81;5040089;28;20247;-89
2023/03/12 01:12:44;;;;;;;4.60;2.20;;;;;;;-141.97;63.55;47599.81;5023441;28;20180;-89
2023/03/12 01:15:13;;;;;;;5.43;2.47;;;;;;;-141.97;63.32;47653.63;5036500;28;20466;-90
2023/03/12 01:17:38;;;;;;;5.33;2.40;;;;;;;-141.97;62.87;47680.53;5018493;28;20173;-90
2023/03/12 01:20:04;;;;;;;5.30;2.93;;;;;;;-141.97;63.56;47645.94;5018716;28;20424;-89
2023/03/12 01:22:30;;;;;;;3.43;2.20;;;;;;;-141.97;63.18;47676.69;5036862;28;20235;-90
2023/03/12 01:24:55;;;;;;;4.70;2.37;;;;;;;-141.97;63.13;47676.69;5020360;28;20170;-90
2023/03/12 01:27:20;;;;;;;4.57;2.30;;;;;;;-141.97;62.90;47630.56;5019204;28;20190;-90
2023/03/12 01:29:46;;;;;;;5.80;2.37;;;;;;;-141.97;62.46;47622.88;5035869;28;20725;-90
2023/03/12 01:32:11;;;;;;;5.07;2.63;;;;;;;-141.97;62.50;47672.84;5019008;28;20178;-91
2023/03/12 01:34:37;;;;;;;7.67;2.43;;;;;;;-141.97;62.29;47607.50;5018928;28;20642;-90
2023/03/12 01:37:02;;;;;;;5.00;2.50;;;;;;;-141.97;62.09;47567.13;5018636;28;20244;-89
2023/03/12 01:39:28;;;;;;;7.27;3.30;;;;;;;-141.97;61.91;47776.63;5020863;28;20185;-90
2023/03/12 01:41:53;;;;;;;5.20;2.10;;;;;;;-141.97;61.69;47544.06;5037313;28;20166;-90
2023/03/12 01:44:19;;;;;;;6.63;2.87;;;;;;;-141.97;61.90;47653.63;5037024;28;20158;-89
2023/03/12 01:46:44;;;;;;;5.47;3.13;;;;;;;-141.97;62.45;47818.94;5030200;28;20237;-88
2023/03/12 01:49:13;;;;;;;7.47;2.80;;;;;;;-141.97;62.03;47676.69;5022568;28;20611;-90
2023/03/12 01:51:39;;;;;;;6.70;2.90;;;;;;;-141.97;61.91;47722.81;5018364;28;20190;-88
2023/03/12 01:54:09;;;;;;;4.83;2.43;;;;;;;-141.97;62.12;47707.44;5018736;28;20784;-90
2023/03/12 01:56:36;;;;;;;6.40;2.50;;;;;;;-141.97;62.32;47768.94;5019306;28;20174;-89
2023/03/12 01:59:07;;;;;;;7.87;2.40;;;;;;;-141.97;61.90;47680.53;5021439;28;20424;-89
2023/03/12 02:01:33;;;;;;;8.23;3.10;;;;;;;-141.97;61.48;47711.28;5018149;28;20459;-88
2023/03/12 02:04:00;;;;;;;10.37;3.83;;;;;;;-141.97;62.20;47707.44;5017632;28;20413;-88
2023/03/12 02:06:35;;;;;;;7.87;2.90;;;;;;;-141.97;61.79;47697.84;5017774;28;20174;-90
2023/03/12 02:09:04;;;;;;;3.83;2.90;;;;;;;-141.97;62.00;47711.28;5035681;28;20478;-89
2023/03/12 02:11:30;;;;;;;8.27;3.67;;;;;;;-141.97;61.33;47742.03;5017552;28;20441;-90
2023/03/12 02:13:55;;;;;;;6.63;3.57;;;;;;;-141.97;60.67;47665.16;5016674;28;20417;-89
2023/03/12 02:16:21;;;;;;;4.50;2.93;;;;;;;-141.97;60.53;47688.22;5018256;28;20174;-90
2023/03/12 02:18:49;;;;;;;6.37;3.23;;;;;;;-141.97;60.59;47707.44;5018123;28;20170;-89
2023/03/12 02:21:20;;;;;;;5.53;3.93;;;;;;;-141.97;60.66;47788.19;5035611;28;20188;-90
2023/03/12 02:23:45;;;;;;;13.13;3.50;;;;;;;-141.97;60.27;47674.78;5017298;28;20804;-89
2023/03/12 02:26:11;;;;;;;5.17;3.03;;;;;;;-141.97;60.33;47753.56;5017116;28;20419;-88
2023/03/12 02:28:42;;;;;;;8.20;2.93;;;;;;;-141.97;60.61;47607.50;5034951;28;20201;-88
2023/03/12 02:31:11;;;;;;;9.43;3.70;;;;;;;-141.97;60.09;47647.84;5017566;28;20503;-91
2023/03/12 02:33:37;;;;;;;7.50;3.73;;;;;;;-141.97;60.04;47726.66;5035726;28;20397;-89
2023/03/12 02:36:02;;;;;;;6.67;3.63;;;;;;;-141.97;59.95;47713.22;5034765;28;20436;-89
2023/03/12 02:38:39;;;;;;;6.20;3.77;;;;;;;-141.97;59.71;47730.50;5034592;28;20563;-89
2023/03/12 02:41:15;;;;;;;5.93;3.20;;;;;;;-141.97;59.78;47695.91;5018038;28;20189;-90
2023/03/12 02:43:44;;;;;;;5.63;3.67;;;;;;;-141.97;59.83;47792.03;5016801;28;20400;-89
2023/03/12 02:46:11;;;;;;;6.47;3.77;;;;;;;-141.97;59.56;47655.53;5016916;28;20415;-89
2023/03/12 02:48:36;;;;;;;6.40;3.60;;;;;;;-141.97;59.42;47736.28;5016841;28;20472;-89
2023/03/12 02:51:02;;;;;;;5.60;3.20;;;;;;;-141.97;59.36;47670.91;5016671;28;20976;-88
2023/03/12 02:53:28;;;;;;;9.37;3.77;;;;;;;-141.97;59.31;47670.91;5040599;28;20166;-88
2023/03/12 02:55:54;;;;;;;7.47;3.80;;;;;;;-141.97;59.21;47628.63;5017519;28;20563;-89
2023/03/12 02:58:20;;;;;;;6.53;3.90;;;;;;;-141.97;58.88;47699.75;5016762;28;20394;-89
2023/03/12 03:00:45;;;;;;;9.60;3.77;;;;;;;-141.97;59.00;47603.66;5017307;28;20416;-89
2023/03/12 03:03:11;;;;;;;7.17;4.63;;;;;;;-141.97;59.41;47644.00;5017109;28;20198;-89
2023/03/12 03:05:36;;;;;;;6.70;4.10;;;;;;;-141.97;59.23;47630.56;5017157;28;20750;-90
2023/03/12 03:08:03;;;;;;;6.00;4.03;;;;;;;-141.97;58.89;47638.25;5016988;28;20166;-90
2023/03/12 03:10:28;;;;;;;8.77;4.00;;;;;;;-141.97;59.18;47622.88;5016341;28;20193;-90
2023/03/12 03:12:54;;;;;;;6.83;3.67;;;;;;;-141.97;59.37;47515.22;5016554;28;20408;-90
2023/03/12 03:15:19;;;;;;;6.83;3.20;;;;;;;-141.97;58.99;47592.13;5016619;28;20717;-89
2023/03/12 03:17:45;;;;;;;8.50;4.63;;;;;;;-141.97;59.39;47588.28;5016612;28;20170;-90
2023/03/12 03:20:10;;;;;;;8.53;4.67;;;;;;;-141.97;59.81;47661.31;5034109;28;20162;-90
2023/03/12 03:22:37;;;;;;;10.03;4.50;;;;;;;-141.97;59.92;47557.53;5016507;28;20168;-90
2023/03/12 03:25:03;;;;;;;7.53;4.50;;;;;;;-141.97;60.52;47745.88;5033382;28;20232;-90
2023/03/12 03:27:29;;;;;;;8.80;4.50;;;;;;;-141.97;60.62;47688.22;5033638;28;20432;-90
2023/03/12 03:29:54;;;;;;;7.00;4.27;;;;;;;-141.97;60.84;47563.28;5016230;28;20419;-90
2023/03/12 03:32:20;;;;;;;6.37;3.13;;;;;;;-141.97;60.34;47624.78;5016498;28;20164;-89
2023/03/12 03:34:45;;;;;;;7.03;4.53;;;;;;;-141.97;60.80;47595.97;5016357;28;20205;-92
2023/03/12 03:37:11;;;;;;;10.20;4.47;;;;;;;-141.97;60.21;47749.72;5035015;28;20192;-89
2023/03/12 03:39:37;;;;;;;5.47;3.47;;;;;;;-141.97;60.14;47707.44;5015501;28;20173;-89
2023/03/12 03:42:03;;;;;;;7.00;4.13;;;;;;;-141.97;59.74;47688.22;5016128;28;20162;-89
2023/03/12 03:44:29;;;;;;;5.63;4.37;;;;;;;-141.97;59.46;47607.50;5024967;28;20166;-91
2023/03/12 03:46:54;;;;;;;6.97;4.17;;;;;;;-141.97;59.21;47715.13;5016819;28;20170;-90
2023/03/12 03:49:20;;;;;;;7.80;4.87;;;;;;;-141.97;59.11;47659.38;5033629;28;20468;-91
2023/03/12 03:51:45;;;;;;;5.80;3.50;;;;;;;-141.97;58.96;47657.47;5034071;28;20199;-91
2023/03/12 03:54:11;;;;;;;5.90;3.73;;;;;;;-141.97;59.10;47753.56;5016430;28;20618;-91
2023/03/12 03:56:37;;;;;;;7.97;4.17;;;;;;;-141.97;59.32;47745.88;5016208;28;20204;-90
2023/03/12 03:59:03;;;;;;;6.40;3.87;;;;;;;-141.97;58.60;47661.31;5015864;28;20272;-90
2023/03/12 04:01:30;;;;;;;5.47;3.23;;;;;;;-141.97;57.95;47609.41;5016288;28;20166;-89
2023/03/12 04:03:56;;;;;;;5.53;3.23;;;;;;;-141.97;57.73;47588.28;5015541;28;20502;-91
2023/03/12 04:06:22;;;;;;;6.33;3.73;;;;;;;-141.97;57.55;47692.06;5016361;28;20440;-90
2023/03/12 04:08:47;;;;;;;6.07;4.47;;;;;;;-141.97;56.51;47572.91;5016290;28;20271;-91
2023/03/12 04:11:18;;;;;;;4.60;3.50;;;;;;;-141.97;55.75;47697.84;5015958;28;20197;-91
2023/03/12 04:13:45;;;;;;;5.20;3.43;;;;;;;-141.97;56.68;47688.22;5039388;28;20286;-90
2023/03/12 04:16:11;;;;;;;5.57;3.17;;;;;;;-141.97;56.56;47626.72;5036076;28;20401;-91
2023/03/12 04:18:36;;;;;;;4.03;2.87;;;;;;;-141.97;56.05;47584.44;5015646;28;20943;-90
2023/03/12 04:21:03;;;;;;;4.40;3.17;;;;;;;-141.97;55.78;47709.38;5016297;28;20427;-90
2023/03/12 04:23:29;;;;;;;4.80;3.23;;;;;;;-141.97;56.42;47592.13;5016604;28;20208;-90
2023/03/12 04:25:54;;;;;;;3.30;2.67;;;;;;;-141.97;57.11;47753.56;5033955;28;20827;-90
2023/03/12 04:28:19;;;;;;;7.30;3.40;;;;;;;-141.97;57.03;47626.72;5016261;28;20172;-90
2023/03/12 04:30:53;;;;;;;3.83;2.57;;;;;;;-141.97;56.59;47549.84;5015548;28;20190;-90
2023/03/12 04:33:19;;;;;;;5.13;2.97;;;;;;;-141.97;55.74;47697.84;5032763;28;20177;-91
2023/03/12 04:35:52;;;;;;;7.13;3.60;;;;;;;-141.97;55.25;47790.09;5019265;28;20547;-90
2023/03/12 04:38:19;;;;;;;5.33;3.17;;;;;;;-141.97;54.97;47592.13;5024984;28;20174;-90
2023/03/12 04:40:44;;;;;;;5.17;3.13;;;;;;;-141.97;55.08;47601.72;5024463;28;20469;-91
2023/03/12 04:43:10;;;;;;;6.73;2.93;;;;;;;-141.97;54.93;47599.81;5028700;28;20888;-91
2023/03/12 04:45:38;;;;;;;4.47;2.57;;;;;;;-141.97;55.52;47676.69;5043406;28;20169;-90
2023/03/12 04:48:03;;;;;;;3.57;2.63;;;;;;;-141.97;55.67;47736.28;5027031;28;20229;-87
2023/03/12 04:50:29;;;;;;;4.90;3.07;;;;;;;-141.97;55.81;47669.00;5030720;28;21063;-90
2023/03/12 04:52:54;;;;;;;5.23;3.07;;;;;;;-141.97;55.90;47753.56;5019239;28;20267;-90
2023/03/12 04:55:20;;;;;;;4.90;3.20;;;;;;;-141.97;56.07;47730.50;5019869;28;20170;-90
2023/03/12 04:57:45;;;;;;;7.17;2.83;;;;;;;-141.97;55.55;47588.28;5020074;28;20173;-90
2023/03/12 05:00:12;;;;;;;4.30;3.07;;;;;;;-141.97;55.31;47599.81;5019002;28;20177;-90
2023/03/12 05:02:39;;;;;;;3.77;2.67;;;;;;;-141.97;55.61;47780.47;5019191;28;20177;-90
2023/03/12 05:05:06;;;;;;;4.70;3.20;;;;;;;-141.97;55.03;47707.44;5018885;28;20416;-91
2023/03/12 05:07:31;;;;;;;6.67;3.40;;;;;;;-141.97;55.41;47626.72;5037775;28;20412;-90
2023/03/12 05:09:57;;;;;;;5.33;3.07;;;;;;;-141.97;55.57;47611.34;5018943;28;20791;-90
2023/03/12 05:12:22;;;;;;;3.17;2.37;;;;;;;-141.97;55.84;47784.34;5021225;28;20181;-90
2023/03/12 05:14:48;;;;;;;4.10;2.80;;;;;;;-141.97;55.67;47728.59;5037248;28;20252;-90
2023/03/12 05:17:13;;;;;;;3.83;2.73;;;;;;;-141.97;55.36;47547.91;5036920;28;20169;-91
2023/03/12 05:19:39;;;;;;;11.90;2.93;;;;;;;-141.97;55.85;47565.22;5019039;28;20624;-90
2023/03/12 05:22:04;;;;;;;3.83;2.10;;;;;;;-141.97;56.30;47592.13;5018967;28;20637;-90
2023/03/12 05:24:29;;;;;;;4.50;2.87;;;;;;;-141.97;56.40;47753.56;5018355;28;20243;-91
2023/03/12 05:26:55;;;;;;;5.40;3.33;;;;;;;-141.97;56.65;47743.97;5019339;28;20600;-90
2023/03/12 05:29:20;;;;;;;4.63;3.30;;;;;;;-141.97;56.39;47699.75;5038354;28;20164;-90
2023/03/12 05:31:46;;;;;;;3.87;3.10;;;;;;;-141.97;56.50;47694.00;5019226;28;20185;-89
2023/03/12 05:34:12;;;;;;;4.63;3.17;;;;;;;-141.97;56.71;47709.38;5019330;28;20724;-90
2023/03/12 05:36:38;;;;;;;3.67;2.63;;;;;;;-141.97;56.93;47549.84;5035848;28;20169;-91
2023/03/12 05:39:04;;;;;;;5.33;3.30;;;;;;;-141.97;56.68;47588.28;5015919;28;20425;-90
2023/03/12 05:41:29;;;;;;;4.27;3.10;;;;;;;-141.97;56.88;47695.91;5008121;28;20165;-91
2023/03/12 05:43:56;;;;;;;4.50;3.30;;;;;;;-141.97;57.01;47645.94;5026114;28;20428;-90
2023/03/12 05:46:26;;;;;;;4.57;3.03;;;;;;;-141.97;56.02;47740.13;5008566;28;20655;-91
2023/03/12 05:48:52;;;;;;;4.70;2.67;;;;;;;-141.97;55.96;47595.97;5028940;28;20985;-91
2023/03/12 05:51:24;;;;;;;5.90;3.10;;;;;;;-141.97;56.02;47595.97;5008990;28;20449;-89
2023/03/12 05:53:49;;;;;;;4.50;2.80;;;;;;;-141.97;56.14;47576.75;5012080;28;20170;-89
2023/03/12 05:56:16;;;;;;;4.23;2.23;;;;;;;-141.97;55.44;47534.44;5010701;28;20412;-89
2023/03/12 05:58:43;;;;;;;3.70;2.40;;;;;;;-141.97;54.19;47742.03;5011816;28;20158;-90
2023/03/12 06:01:19;;;;;;;5.70;2.73;;;;;;;-141.97;54.25;47561.38;5009642;28;20433;-91
2023/03/12 06:03:44;;;;;;;4.10;2.57;;;;;;;-141.97;53.75;47669.00;5005314;28;20401;-89
2023/03/12 06:06:10;;;;;;;3.10;2.33;;;;;;;-141.97;53.98;47722.81;5029773;28;20494;-92
2023/03/12 06:08:36;;;;;;;3.83;2.10;;;;;;;-141.97;53.90;47638.25;5009806;28;20193;-91
2023/03/12 06:11:02;;;;;;;3.60;2.57;;;;;;;-141.97;54.44;47736.28;5007080;28;20747;-88
2023/03/12 06:13:27;;;;;;;4.27;2.30;;;;;;;-141.97;53.62;47738.19;5012931;28;20273;-90
2023/03/12 06:15:53;;;;;;;7.37;2.47;;;;;;;-141.97;53.38;47588.28;5008306;28;20468;-90
2023/03/12 06:18:18;;;;;;;5.20;2.43;;;;;;;-141.97;53.19;47619.03;5023861;28;20185;-90
2023/03/12 06:20:44;;;;;;;4.60;2.37;;;;;;;-141.97;52.20;47657.47;5007492;28;20158;-89
2023/03/12 06:23:09;;;;;;;3.77;2.30;;;;;;;-141.97;52.44;47588.28;5010945;28;20693;-90
2023/03/12 06:25:35;;;;;;;3.73;2.07;;;;;;;-141.97;51.74;47724.75;5018104;28;20501;-89
2023/03/12 06:28:00;;;;;;;4.43;2.13;;;;;;;-141.97;50.68;47788.19;5016177;28;20179;-89
2023/03/12 06:30:26;;;;;;;4.10;2.40;;;;;;;-141.97;50.46;47730.50;5018962;28;20209;-87
2023/03/12 06:32:52;;;;;;;4.13;2.27;;;;;;;-141.97;49.94;47663.22;5021245;28;20166;-87
2023/03/12 06:35:17;;;;;;;7.03;2.20;;;;;;;-141.97;49.86;47619.03;5011175;28;20205;-88
2023/03/12 06:37:43;;;;;;;5.23;2.40;;;;;;;-141.97;49.16;47699.75;5023654;28;20303;-88
2023/03/12 06:40:09;;;;;;;2.83;1.87;;;;;;;-141.97;48.31;47701.69;5025152;28;20171;-89
2023/03/12 06:42:35;;;;;;;2.83;1.90;;;;;;;-141.97;47.46;47780.47;5026605;28;20297;-89
2023/03/12 06:45:01;;;;;;;5.10;3.10;;;;;;;-141.97;47.97;47669.00;5024034;28;20439;-87
2023/03/12 06:47:29;;;;;;;5.93;2.20;;;;;;;-141.97;47.02;47634.41;5025486;28;20646;-87
2023/03/12 06:49:55;;;;;;;3.93;2.47;;;;;;;-141.97;46.94;47636.31;5019818;28;20183;-88
2023/03/12 06:52:20;;;;;;;3.37;2.07;;;;;;;-141.97;46.48;47632.47;5006204;28;20440;-88
2023/03/12 06:54:46;;;;;;;4.93;1.93;;;;;;;-141.97;46.84;47722.81;5026641;28;20210;-87
2023/03/12 06:57:11;;;;;;;4.23;2.50;;;;;;;-141.97;46.33;47630.56;5015943;28;20192;-87
2023/03/12 06:59:36;;;;;;;7.60;4.83;;;;;;;-141.97;47.00;47647.84;5001581;28;20622;-89
2023/03/12 07:02:02;;;;;;;4.93;3.00;;;;;;;-141.97;46.28;47692.06;5014591;28;20196;-88
2023/03/12 07:04:28;;;;;;;5.00;2.73;;;;;;;-141.97;46.18;47692.06;5007835;28;20316;-89
2023/03/12 07:06:53;;;;;;;4.27;2.17;;;;;;;-141.97;45.41;47630.56;5016999;28;20174;-88
2023/03/12 07:09:19;;;;;;;2.83;1.93;;;;;;;-141.97;45.69;47686.31;5034593;28;20245;-89
2023/03/12 07:11:44;;;;;;;5.13;2.07;;;;;;;-141.97;45.09;47572.91;5016332;28;20515;-89
2023/03/12 07:14:10;;;;;;;3.73;2.30;;;;;;;-141.97;44.91;47642.09;5033965;28;20173;-89
2023/03/12 07:16:35;;;;;;;4.03;2.13;;;;;;;-141.97;43.18;47772.78;5016675;28;20166;-88
2023/03/12 07:19:01;;;;;;;4.70;2.20;;;;;;;-141.97;43.12;47615.19;5034239;28;20166;-87
2023/03/12 07:21:26;;;;;;;3.53;2.07;;;;;;;-141.97;43.24;47665.16;5016697;28;20260;-90
2023/03/12 07:23:52;;;;;;;5.03;1.90;;;;;;;-141.97;42.60;47605.56;5017322;28;20169;-90
2023/03/12 07:26:18;;;;;;;2.37;1.57;;;;;;;-141.97;42.25;47734.34;5035066;28;20166;-89
2023/03/12 07:28:43;;;;;;;2.33;1.63;;;;;;;-141.97;42.36;47790.09;5016487;28;20630;-88
2023/03/12 07:31:09;;;;;;;3.90;2.20;;;;;;;-141.97;41.74;47626.72;5018241;28;20205;-89
2023/03/12 07:33:34;;;;;;;3.87;2.30;;;;;;;-141.97;41.50;47615.19;5016615;28;20164;-87
2023/03/12 07:36:00;;;;;;;5.80;3.43;;;;;;;-141.97;40.55;47551.75;5034532;28;20641;-90
2023/03/12 07:38:26;;;;;;;5.83;3.07;;;;;;;-141.97;41.78;47584.44;5017066;28;20174;-89
2023/03/12 07:40:53;;;;;;;5.97;3.33;;;;;;;-141.97;40.75;47665.16;5017716;28;20166;-88
2023/03/12 07:43:19;;;;;;;5.77;3.27;;;;;;;-141.97;40.69;47680.53;5017120;28;20181;-88
2023/03/12 07:45:45;;;;;;;9.40;3.73;;;;;;;-141.97;40.43;47620.94;5034184;28;20545;-89
2023/03/12 07:48:13;;;;;;;7.07;3.40;;;;;;;-141.97;40.35;47742.03;5014587;28;20226;-88
2023/03/12 07:50:39;;;;;;;5.10;3.10;;;;;;;-141.97;40.57;47542.16;5019679;28;20261;-88
2023/03/12 07:53:05;;;;;;;14.77;5.67;;;;;;;-141.97;41.15;47694.00;5026930;28;20174;-89
2023/03/12 07:55:33;;;;;;;8.60;4.73;;;;;;;-141.97;40.54;47799.72;5013530;28;20184;-89
2023/03/12 07:58:01;;;;;;;6.80;3.73;;;;;;;-141.97;40.41;47546.00;5015525;28;20159;-89
2023/03/12 08:00:27;;;;;;;5.90;3.17;;;;;;;-141.97;39.97;47715.13;5016409;28;20246;-90
2023/03/12 08:02:56;;;;;;;9.03;4.83;;;;;;;-141.97;40.49;47601.72;5018718;28;21106;-90
2023/03/12 08:05:23;;;;;;;10.83;5.43;;;;;;;-141.97;39.73;47615.19;5014496;28;20175;-90
2023/03/12 08:07:50;;;;;;;3.77;2.27;;;;;;;-141.97;38.91;47799.72;5015879;28;20162;-89
2023/03/12 08:10:16;;;;;;;11.80;7.03;;;;;;;-141.97;39.10;47709.38;5014980;28;20638;-89
2023/03/12 08:12:42;;;;;;;4.30;2.80;;;;;;;-141.97;38.70;47784.34;5013563;28;20226;-87
2023/03/12 08:15:07;;;;;;;7.07;3.93;;;;;;;-141.97;38.25;47580.59;5014774;28;20341;-90
2023/03/12 08:17:34;;;;;;;6.50;3.73;;;;;;;-141.97;38.40;47584.44;5014586;28;20182;-89
2023/03/12 08:19:59;;;;;;;7.50;4.40;;;;;;;-141.97;38.38;47617.09;5012775;28;20742;-90
2023/03/12 08:22:25;;;;;;;7.47;4.17;;;;;;;-141.97;38.72;47743.97;5015738;28;20249;-90
2023/03/12 08:24:50;;;;;;;9.70;5.37;;;;;;;-141.97;37.89;47590.19;5018922;28;20256;-90
2023/03/12 08:27:15;;;;;;;15.03;7.80;;;;;;;-141.97;37.82;47572.91;5012135;28;20174;-90
2023/03/12 08:29:41;;;;;;;11.80;5.70;;;;;;;-141.97;36.69;47770.88;5013931;28;20170;-90
2023/03/12 08:32:09;;;;;;;7.33;4.60;;;;;;;-141.97;37.43;47722.81;5014050;28;20303;-91
2023/03/12 08:34:35;;;;;;;7.87;4.20;;;;;;;-141.97;36.84;47688.22;5013641;28;20163;-89
2023/03/12 08:37:01;;;;;;;7.63;5.00;;;;;;;-141.97;36.72;47488.31;5013958;28;20170;-89
2023/03/12 08:39:27;;;;;;;16.10;7.17;;;;;;;-141.97;35.12;47559.44;5013852;28;20197;-90
2023/03/12 08:41:54;;;;;;;15.73;6.67;;;;;;;-141.97;34.30;47649.78;5014886;28;20162;-90
2023/03/12 08:44:20;;;;;;;5.33;3.00;;;;;;;-141.97;34.05;47569.06;5013904;28;20193;-90
2023/03/12 08:46:46;;;;;;;3.07;1.83;;;;;;;-141.97;35.07;47561.38;5015644;28;20167;-91
2023/03/12 08:49:12;;;;;;;6.90;4.00;;;;;;;-141.97;35.60;47757.41;5017944;28;20245;-91
2023/03/12 08:51:37;;;;;;;4.93;3.03;;;;;;;-141.97;34.59;47561.38;5014785;28;20300;-91
2023/03/12 08:54:04;;;;;;;7.07;4.30;;;;;;;-141.97;34.76;47511.38;5014535;28;20170;-90
2023/03/12 08:56:29;;;;;;;4.10;3.13;;;;;;;-141.97;33.58;47582.50;5014238;28;20155;-89
2023/03/12 08:58:56;;;;;;;7.87;4.93;;;;;;;-141.97;33.66;47761.25;5012944;28;20202;-89
2023/03/12 09:01:22;;;;;;;4.90;3.90;;;;;;;-141.97;32.86;47776.63;5014975;28;20257;-88
2023/03/12 09:03:49;;;;;;;8.17;5.23;;;;;;;-141.97;32.48;47742.03;5014171;28;20213;-90
2023/03/12 09:06:15;;;;;;;9.90;7.43;;;;;;;-141.97;33.21;47501.78;5013315;28;20170;-90
2023/03/12 09:08:43;;;;;;;6.67;3.53;;;;;;;-141.97;33.79;47642.09;5013147;28;20258;-91
2023/03/12 09:11:10;;;;;;;7.13;4.53;;;;;;;-141.97;33.73;47690.16;5013332;28;20250;-90
2023/03/12 09:13:36;;;;;;;13.30;7.20;;;;;;;-141.97;32.85;47649.78;5014803;28;20171;-90
2023/03/12 09:16:02;;;;;;;8.27;4.57;;;;;;;-141.97;32.65;47497.94;5015076;28;20296;-90
2023/03/12 09:18:29;;;;;;;12.53;6.57;;;;;;;-141.97;32.60;47624.78;5014441;28;20183;-91
2023/03/12 09:20:55;;;;;;;14.37;6.90;;;;;;;-141.97;32.25;47672.84;5014951;28;20186;-90
2023/03/12 09:23:20;;;;;;;8.73;4.33;;;;;;;-141.97;32.61;47519.06;5015564;28;20174;-90
2023/03/12 09:25:47;;;;;;;9.93;4.87;;;;;;;-141.97;32.41;47718.97;5017458;28;20159;-89
2023/03/12 09:28:13;;;;;;;12.47;8.10;;;;;;;-141.97;32.75;47701.69;5016559;28;20635;-89
2023/03/12 09:30:38;;;;;;;8.17;5.30;;;;;;;-141.97;33.11;47715.13;5017349;28;20228;-89
2023/03/12 09:33:04;;;;;;;9.87;5.03;;;;;;;-141.97;32.79;47538.28;5017646;28;20163;-90
2023/03/12 09:35:30;;;;;;;8.93;4.30;;;;;;;-141.97;32.58;47749.72;5018825;28;20214;-90
2023/03/12 09:37:56;;;;;;;6.00;3.80;;;;;;;-141.97;32.71;47780.47;5017518;28;20159;-89
2023/03/12 09:40:25;;;;;;;8.77;3.97;;;;;;;-141.97;32.54;47595.97;5018036;28;20170;-90
2023/03/12 09:43:09;;;;;;;9.00;4.80;;;;;;;-141.97;32.53;47526.75;5016189;28;20202;-90
2023/03/12 09:45:43;;;;;;;8.73;5.17;;;;;;;-141.97;33.09;47730.50;5016655;28;20166;-90
2023/03/12 09:48:32;;;;;;;9.13;5.13;;;;;;;-141.97;32.81;47649.78;5016784;28;20225;-89
2023/03/12 09:51:05;;;;;;;11.70;7.43;;;;;;;-141.97;32.29;47626.72;5004877;28;20303;-91
2023/03/12 09:53:40;;;;;;;8.63;5.70;;;;;;;-141.97;32.61;47784.34;4986499;28;20262;-90
2023/03/12 09:56:13;;;;;;;7.70;4.90;;;;;;;-141.97;32.85;47563.28;4981997;28;20182;-90
2023/03/12 09:58:41;;;;;;;4.37;3.20;;;;;;;-141.97;32.28;47599.81;4982627;28;20195;-89
2023/03/12 10:01:37;;;;;;;12.03;5.63;;;;;;;-141.97;32.13;47703.59;4989708;28;20259;-90
2023/03/12 10:04:20;;;;;;;12.90;7.17;;;;;;;-141.97;32.14;47722.81;4991688;28;20178;-90
2023/03/12 10:07:02;;;;;;;12.50;4.83;;;;;;;-141.97;31.84;47624.78;4991033;28;20203;-91
2023/03/12 10:10:09;;;;;;;10.33;4.90;;;;;;;-141.97;32.77;47680.53;4992467;28;20249;-91
2023/03/12 10:12:52;;;;;;;12.80;7.47;;;;;;;-141.97;32.63;47638.25;4940177;29;20188;-88
2023/03/12 10:15:39;;;;;;;12.67;7.50;;;;;;;-141.97;33.12;47661.31;4950444;29;20614;-90
2023/03/12 10:18:10;;;;;;;6.07;3.03;;;;;;;-141.97;32.84;47669.00;4956476;29;20192;-93
2023/03/12 10:20:51;;;;;;;9.70;4.37;;;;;;;-141.97;33.27;47649.78;4943561;29;20271;-93
2023/03/12 10:23:47;;;;;;;10.00;6.20;;;;;;;-141.97;33.44;47642.09;4953489;28;20672;-92
2023/03/12 10:26:27;;;;;;;3.20;2.27;;;;;;;-141.97;33.54;47611.34;4955390;29;20197;-91
2023/03/12 10:29:12;;;;;;;7.00;4.23;;;;;;;-141.97;33.94;47684.38;4963243;29;20188;-89
2023/03/12 10:31:56;;;;;;;10.87;6.17;;;;;;;-141.97;33.78;47718.97;4944037;29;20272;-92
2023/03/12 10:34:31;;;;;;;15.43;9.07;;;;;;;-141.97;32.92;47647.84;4946183;28;20180;-93
2023/03/12 10:37:11;;;;;;;7.57;5.30;;;;;;;-141.97;32.79;47595.97;4954501;29;20176;-93
2023/03/12 10:39:38;;;;;;;10.93;6.20;;;;;;;-141.97;33.48;47751.66;4955373;29;20633;-91
2023/03/12 10:42:13;;;;;;;8.13;3.93;;;;;;;-141.97;32.87;47730.50;4948386;29;20182;-92
2023/03/12 10:44:42;;;;;;;14.17;6.23;;;;;;;-141.97;33.54;47678.63;4986352;28;20186;-93
2023/03/12 10:47:34;;;;;;;27.03;16.40;;;;;;;-141.97;34.17;47653.63;4989256;28;20193;-92
2023/03/12 10:50:18;;;;;;;15.73;9.30;;;;;;;-141.97;33.12;47636.31;4984985;28;20204;-92
2023/03/12 10:52:46;;;;;;;12.60;6.90;;;;;;;-141.97;32.98;47513.31;4989560;28;20218;-91
2023/03/12 10:55:26;;;;;;;11.07;6.73;;;;;;;-141.97;33.21;47670.91;4994277;28;20202;-91
2023/03/12 10:57:52;;;;;;;7.67;4.40;;;;;;;-141.97;33.23;47688.22;4993481;28;20237;-92
2023/03/12 11:00:25;;;;;;;11.53;5.40;;;;;;;-141.97;32.41;47711.28;4982657;28;20175;-91
2023/03/12 11:03:03;;;;;;;9.47;5.17;;;;;;;-141.97;32.57;47609.41;4994681;28;20180;-92
2023/03/12 11:05:30;;;;;;;12.57;6.53;;;;;;;-141.97;32.43;47640.16;4992643;28;20163;-92
2023/03/12 11:07:59;;;;;;;12.10;6.73;;;;;;;-141.97;31.80;47519.06;4994345;28;20239;-92
2023/03/12 11:10:36;;;;;;;10.10;6.43;;;;;;;-141.97;31.35;47684.38;4997923;28;20230;-91
2023/03/12 11:13:21;;;;;;;19.33;9.93;;;;;;;-141.97;32.33;47780.47;4990143;28;20180;-92
2023/03/12 11:15:47;;;;;;;16.83;7.17;;;;;;;-141.97;32.13;47611.34;4981647;28;20210;-93
2023/03/12 11:18:30;;;;;;;18.63;6.73;;;;;;;-141.97;32.34;47676.69;4983940;28;20654;-93
2023/03/12 11:21:08;;;;;;;37.10;13.47;;;;;;;-141.97;32.51;47657.47;4984815;28;20175;-92